sensor_id;sensor_type;location;lat;lon;timestamp;P1;durP1;ratioP1;P2;durP2;ratioP2
65558;SDS011;52203;51.998;5.140;2023-07-08T00:00:43;6.70;;;4.10;;
65558;SDS011;52203;51.998;5.140;2023-07-08T00:03:13;7.10;;;3.60;;
65558;SDS011;52203;51.998;5.140;2023-07-08T00:05:39;7.18;;;3.80;;
65558;SDS011;52203;51.998;5.140;2023-07-08T00:08:08;5.32;;;3.70;;
65558;SDS011;52203;51.998;5.140;2023-07-08T00:10:36;6.18;;;3.80;;
65558;SDS011;52203;51.998;5.140;2023-07-08T00:13:02;6.43;;;3.85;;
65558;SDS011;52203;51.998;5.140;2023-07-08T00:15:28;5.63;;;3.65;;
65558;SDS011;52203;51.998;5.140;2023-07-08T00:17:57;5.82;;;3.90;;
65558;SDS011;52203;51.998;5.140;2023-07-08T00:20:33;5.63;;;3.80;;
65558;SDS011;52203;51.998;5.140;2023-07-08T00:23:02;6.45;;;4.13;;
65558;SDS011;52203;51.998;5.140;2023-07-08T00:25:28;6.10;;;3.60;;
65558;SDS011;52203;51.998;5.140;2023-07-08T00:27:55;6.78;;;3.58;;
65558;SDS011;52203;51.998;5.140;2023-07-08T00:30:22;7.65;;;4.00;;
65558;SDS011;52203;51.998;5.140;2023-07-08T00:32:53;5.85;;;3.90;;
65558;SDS011;52203;51.998;5.140;2023-07-08T00:35:20;5.35;;;3.45;;
65558;SDS011;52203;51.998;5.140;2023-07-08T00:37:53;6.47;;;3.88;;
65558;SDS011;52203;51.998;5.140;2023-07-08T00:40:21;7.65;;;3.75;;
65558;SDS011;52203;51.998;5.140;2023-07-08T00:42:47;5.22;;;3.55;;
65558;SDS011;52203;51.998;5.140;2023-07-08T00:48:28;5.60;;;3.92;;
65558;SDS011;52203;51.998;5.140;2023-07-08T00:50:54;6.57;;;3.88;;
65558;SDS011;52203;51.998;5.140;2023-07-08T00:55:52;6.63;;;3.75;;
65558;SDS011;52203;51.998;5.140;2023-07-08T00:58:25;8.90;;;3.80;;
65558;SDS011;52203;51.998;5.140;2023-07-08T01:00:58;8.07;;;4.00;;
65558;SDS011;52203;51.998;5.140;2023-07-08T01:03:24;7.03;;;3.65;;
65558;SDS011;52203;51.998;5.140;2023-07-08T01:05:52;6.15;;;3.63;;
65558;SDS011;52203;51.998;5.140;2023-07-08T01:08:24;6.85;;;4.30;;
65558;SDS011;52203;51.998;5.140;2023-07-08T01:10:56;7.18;;;3.97;;
65558;SDS011;52203;51.998;5.140;2023-07-08T01:13:26;9.07;;;4.13;;
65558;SDS011;52203;51.998;5.140;2023-07-08T01:15:55;7.90;;;3.92;;
65558;SDS011;52203;51.998;5.140;2023-07-08T01:18:21;7.07;;;4.15;;
65558;SDS011;52203;51.998;5.140;2023-07-08T01:20:47;7.32;;;3.97;;
65558;SDS011;52203;51.998;5.140;2023-07-08T01:23:13;7.43;;;3.80;;
65558;SDS011;52203;51.998;5.140;2023-07-08T01:25:40;6.15;;;4.07;;
65558;SDS011;52203;51.998;5.140;2023-07-08T01:28:07;7.20;;;4.13;;
65558;SDS011;52203;51.998;5.140;2023-07-08T01:30:33;7.03;;;3.72;;
65558;SDS011;52203;51.998;5.140;2023-07-08T01:33:01;6.50;;;4.00;;
65558;SDS011;52203;51.998;5.140;2023-07-08T01:35:30;8.80;;;4.00;;
65558;SDS011;52203;51.998;5.140;2023-07-08T01:38:00;4.90;;;3.42;;
65558;SDS011;52203;51.998;5.140;2023-07-08T01:40:32;8.30;;;3.75;;
65558;SDS011;52203;51.998;5.140;2023-07-08T01:43:00;7.28;;;4.25;;
65558;SDS011;52203;51.998;5.140;2023-07-08T01:45:34;6.50;;;3.60;;
65558;SDS011;52203;51.998;5.140;2023-07-08T01:48:09;8.93;;;4.50;;
65558;SDS011;52203;51.998;5.140;2023-07-08T01:50:45;6.28;;;3.80;;
65558;SDS011;52203;51.998;5.140;2023-07-08T01:53:18;6.57;;;3.63;;
65558;SDS011;52203;51.998;5.140;2023-07-08T01:55:46;6.93;;;3.70;;
65558;SDS011;52203;51.998;5.140;2023-07-08T01:58:12;7.55;;;3.97;;
65558;SDS011;52203;51.998;5.140;2023-07-08T02:00:37;7.18;;;3.85;;
65558;SDS011;52203;51.998;5.140;2023-07-08T02:03:03;6.10;;;3.95;;
65558;SDS011;52203;51.998;5.140;2023-07-08T02:05:28;5.82;;;4.03;;
65558;SDS011;52203;51.998;5.140;2023-07-08T02:07:54;7.35;;;3.85;;
65558;SDS011;52203;51.998;5.140;2023-07-08T02:10:21;6.18;;;4.43;;
65558;SDS011;52203;51.998;5.140;2023-07-08T02:12:47;7.05;;;3.90;;
65558;SDS011;52203;51.998;5.140;2023-07-08T02:15:12;7.10;;;4.05;;
65558;SDS011;52203;51.998;5.140;2023-07-08T02:17:38;8.73;;;4.45;;
65558;SDS011;52203;51.998;5.140;2023-07-08T02:20:03;7.60;;;3.95;;
65558;SDS011;52203;51.998;5.140;2023-07-08T02:22:29;6.65;;;4.10;;
65558;SDS011;52203;51.998;5.140;2023-07-08T02:24:55;5.45;;;3.70;;
65558;SDS011;52203;51.998;5.140;2023-07-08T02:27:20;6.45;;;4.30;;
65558;SDS011;52203;51.998;5.140;2023-07-08T02:29:45;6.95;;;4.53;;
65558;SDS011;52203;51.998;5.140;2023-07-08T02:32:11;8.13;;;4.38;;
65558;SDS011;52203;51.998;5.140;2023-07-08T02:34:37;8.10;;;4.35;;
65558;SDS011;52203;51.998;5.140;2023-07-08T02:37:02;6.13;;;3.97;;
65558;SDS011;52203;51.998;5.140;2023-07-08T02:39:29;7.38;;;4.20;;
65558;SDS011;52203;51.998;5.140;2023-07-08T02:41:54;6.25;;;4.25;;
65558;SDS011;52203;51.998;5.140;2023-07-08T02:44:20;6.38;;;4.35;;
65558;SDS011;52203;51.998;5.140;2023-07-08T02:46:45;7.97;;;4.20;;
65558;SDS011;52203;51.998;5.140;2023-07-08T02:49:10;7.43;;;4.60;;
65558;SDS011;52203;51.998;5.140;2023-07-08T02:51:36;8.88;;;3.88;;
65558;SDS011;52203;51.998;5.140;2023-07-08T02:54:01;6.03;;;4.18;;
65558;SDS011;52203;51.998;5.140;2023-07-08T02:56:27;7.18;;;4.25;;
65558;SDS011;52203;51.998;5.140;2023-07-08T02:58:53;6.70;;;4.03;;
65558;SDS011;52203;51.998;5.140;2023-07-08T03:01:18;5.97;;;4.20;;
65558;SDS011;52203;51.998;5.140;2023-07-08T03:03:44;5.68;;;4.03;;
65558;SDS011;52203;51.998;5.140;2023-07-08T03:06:10;7.30;;;3.90;;
65558;SDS011;52203;51.998;5.140;2023-07-08T03:08:36;6.72;;;4.57;;
65558;SDS011;52203;51.998;5.140;2023-07-08T03:11:06;6.55;;;4.15;;
65558;SDS011;52203;51.998;5.140;2023-07-08T03:13:33;6.40;;;4.10;;
65558;SDS011;52203;51.998;5.140;2023-07-08T03:15:59;7.22;;;4.60;;
65558;SDS011;52203;51.998;5.140;2023-07-08T03:18:26;5.55;;;3.75;;
65558;SDS011;52203;51.998;5.140;2023-07-08T03:20:55;6.20;;;3.78;;
65558;SDS011;52203;51.998;5.140;2023-07-08T03:23:21;6.88;;;4.28;;
65558;SDS011;52203;51.998;5.140;2023-07-08T03:25:48;7.32;;;4.00;;
65558;SDS011;52203;51.998;5.140;2023-07-08T03:28:14;7.63;;;3.90;;
65558;SDS011;52203;51.998;5.140;2023-07-08T03:30:43;5.68;;;4.32;;
65558;SDS011;52203;51.998;5.140;2023-07-08T03:33:10;7.00;;;3.92;;
65558;SDS011;52203;51.998;5.140;2023-07-08T03:35:36;7.03;;;4.18;;
65558;SDS011;52203;51.998;5.140;2023-07-08T03:38:03;6.18;;;3.92;;
65558;SDS011;52203;51.998;5.140;2023-07-08T03:40:29;5.70;;;3.72;;
65558;SDS011;52203;51.998;5.140;2023-07-08T03:42:56;6.95;;;4.40;;
65558;SDS011;52203;51.998;5.140;2023-07-08T03:45:21;8.60;;;4.03;;
65558;SDS011;52203;51.998;5.140;2023-07-08T03:47:46;7.25;;;4.05;;
65558;SDS011;52203;51.998;5.140;2023-07-08T03:50:17;6.80;;;3.97;;
65558;SDS011;52203;51.998;5.140;2023-07-08T03:52:45;6.15;;;4.13;;
65558;SDS011;52203;51.998;5.140;2023-07-08T03:55:11;7.13;;;4.13;;
65558;SDS011;52203;51.998;5.140;2023-07-08T03:57:37;7.03;;;4.32;;
65558;SDS011;52203;51.998;5.140;2023-07-08T04:00:02;5.63;;;3.95;;
65558;SDS011;52203;51.998;5.140;2023-07-08T04:02:28;5.15;;;3.75;;
65558;SDS011;52203;51.998;5.140;2023-07-08T04:04:54;6.13;;;4.05;;
65558;SDS011;52203;51.998;5.140;2023-07-08T04:07:19;5.55;;;4.07;;
65558;SDS011;52203;51.998;5.140;2023-07-08T04:09:45;6.15;;;4.40;;
65558;SDS011;52203;51.998;5.140;2023-07-08T04:12:15;6.00;;;4.07;;
65558;SDS011;52203;51.998;5.140;2023-07-08T04:14:40;5.18;;;3.78;;
65558;SDS011;52203;51.998;5.140;2023-07-08T04:17:07;5.05;;;3.90;;
65558;SDS011;52203;51.998;5.140;2023-07-08T04:19:34;6.15;;;3.80;;
65558;SDS011;52203;51.998;5.140;2023-07-08T04:22:00;7.50;;;4.05;;
65558;SDS011;52203;51.998;5.140;2023-07-08T04:24:27;6.25;;;3.88;;
65558;SDS011;52203;51.998;5.140;2023-07-08T04:26:53;6.68;;;4.03;;
65558;SDS011;52203;51.998;5.140;2023-07-08T04:29:19;5.88;;;4.00;;
65558;SDS011;52203;51.998;5.140;2023-07-08T04:31:46;7.25;;;4.28;;
65558;SDS011;52203;51.998;5.140;2023-07-08T04:34:12;7.32;;;4.10;;
65558;SDS011;52203;51.998;5.140;2023-07-08T04:36:39;6.40;;;4.18;;
65558;SDS011;52203;51.998;5.140;2023-07-08T04:39:05;5.70;;;3.80;;
65558;SDS011;52203;51.998;5.140;2023-07-08T04:41:33;6.55;;;3.78;;
65558;SDS011;52203;51.998;5.140;2023-07-08T04:43:59;5.85;;;4.07;;
65558;SDS011;52203;51.998;5.140;2023-07-08T04:46:32;6.05;;;3.85;;
65558;SDS011;52203;51.998;5.140;2023-07-08T04:49:04;6.05;;;3.55;;
65558;SDS011;52203;51.998;5.140;2023-07-08T04:51:31;6.45;;;3.88;;
65558;SDS011;52203;51.998;5.140;2023-07-08T04:53:57;6.25;;;3.72;;
65558;SDS011;52203;51.998;5.140;2023-07-08T04:56:24;5.90;;;3.42;;
65558;SDS011;52203;51.998;5.140;2023-07-08T04:58:51;5.47;;;3.85;;
65558;SDS011;52203;51.998;5.140;2023-07-08T05:01:16;6.75;;;3.90;;
65558;SDS011;52203;51.998;5.140;2023-07-08T05:03:41;5.30;;;4.00;;
65558;SDS011;52203;51.998;5.140;2023-07-08T05:06:07;5.28;;;3.67;;
65558;SDS011;52203;51.998;5.140;2023-07-08T05:08:32;7.07;;;4.07;;
65558;SDS011;52203;51.998;5.140;2023-07-08T05:10:58;6.75;;;4.00;;
65558;SDS011;52203;51.998;5.140;2023-07-08T05:13:24;6.00;;;3.70;;
65558;SDS011;52203;51.998;5.140;2023-07-08T05:15:50;6.38;;;3.65;;
65558;SDS011;52203;51.998;5.140;2023-07-08T05:18:15;6.43;;;3.60;;
65558;SDS011;52203;51.998;5.140;2023-07-08T05:20:40;5.95;;;3.70;;
65558;SDS011;52203;51.998;5.140;2023-07-08T05:23:08;6.22;;;3.85;;
65558;SDS011;52203;51.998;5.140;2023-07-08T05:25:34;4.95;;;3.67;;
65558;SDS011;52203;51.998;5.140;2023-07-08T05:28:00;5.50;;;3.50;;
65558;SDS011;52203;51.998;5.140;2023-07-08T05:30:26;8.02;;;3.78;;
65558;SDS011;52203;51.998;5.140;2023-07-08T05:32:51;4.05;;;3.33;;
65558;SDS011;52203;51.998;5.140;2023-07-08T05:35:18;6.38;;;3.60;;
65558;SDS011;52203;51.998;5.140;2023-07-08T05:37:43;5.35;;;3.83;;
65558;SDS011;52203;51.998;5.140;2023-07-08T05:40:12;5.60;;;3.70;;
65558;SDS011;52203;51.998;5.140;2023-07-08T05:42:37;5.75;;;3.50;;
65558;SDS011;52203;51.998;5.140;2023-07-08T05:45:03;6.22;;;3.53;;
65558;SDS011;52203;51.998;5.140;2023-07-08T05:47:31;4.60;;;3.50;;
65558;SDS011;52203;51.998;5.140;2023-07-08T05:49:57;6.30;;;3.55;;
65558;SDS011;52203;51.998;5.140;2023-07-08T05:52:22;4.70;;;3.47;;
65558;SDS011;52203;51.998;5.140;2023-07-08T05:54:48;4.57;;;3.22;;
65558;SDS011;52203;51.998;5.140;2023-07-08T05:57:13;5.15;;;3.20;;
65558;SDS011;52203;51.998;5.140;2023-07-08T05:59:39;7.07;;;3.50;;
65558;SDS011;52203;51.998;5.140;2023-07-08T06:02:05;5.10;;;3.47;;
65558;SDS011;52203;51.998;5.140;2023-07-08T06:04:31;5.32;;;3.35;;
65558;SDS011;52203;51.998;5.140;2023-07-08T06:06:57;4.80;;;3.30;;
65558;SDS011;52203;51.998;5.140;2023-07-08T06:09:23;5.32;;;3.30;;
65558;SDS011;52203;51.998;5.140;2023-07-08T06:11:49;7.75;;;3.58;;
65558;SDS011;52203;51.998;5.140;2023-07-08T06:14:14;5.03;;;3.05;;
65558;SDS011;52203;51.998;5.140;2023-07-08T06:16:40;7.38;;;3.40;;
65558;SDS011;52203;51.998;5.140;2023-07-08T06:19:05;5.63;;;3.70;;
65558;SDS011;52203;51.998;5.140;2023-07-08T06:21:31;6.78;;;3.00;;
65558;SDS011;52203;51.998;5.140;2023-07-08T06:23:57;5.85;;;2.90;;
65558;SDS011;52203;51.998;5.140;2023-07-08T06:26:22;6.88;;;2.85;;
65558;SDS011;52203;51.998;5.140;2023-07-08T06:28:48;4.88;;;3.30;;
65558;SDS011;52203;51.998;5.140;2023-07-08T06:31:14;6.90;;;3.30;;
65558;SDS011;52203;51.998;5.140;2023-07-08T06:33:39;4.57;;;3.08;;
65558;SDS011;52203;51.998;5.140;2023-07-08T06:36:05;4.68;;;3.10;;
65558;SDS011;52203;51.998;5.140;2023-07-08T06:38:32;5.60;;;3.08;;
65558;SDS011;52203;51.998;5.140;2023-07-08T06:40:58;4.43;;;2.75;;
65558;SDS011;52203;51.998;5.140;2023-07-08T06:43:23;5.40;;;3.20;;
65558;SDS011;52203;51.998;5.140;2023-07-08T06:45:49;4.78;;;3.20;;
65558;SDS011;52203;51.998;5.140;2023-07-08T06:48:14;6.18;;;3.35;;
65558;SDS011;52203;51.998;5.140;2023-07-08T06:50:41;5.38;;;3.10;;
65558;SDS011;52203;51.998;5.140;2023-07-08T06:53:08;5.10;;;2.85;;
65558;SDS011;52203;51.998;5.140;2023-07-08T06:55:34;5.22;;;3.35;;
65558;SDS011;52203;51.998;5.140;2023-07-08T06:58:00;6.43;;;3.35;;
65558;SDS011;52203;51.998;5.140;2023-07-08T07:00:25;6.28;;;2.97;;
65558;SDS011;52203;51.998;5.140;2023-07-08T07:02:51;5.10;;;3.35;;
65558;SDS011;52203;51.998;5.140;2023-07-08T07:05:16;5.65;;;3.20;;
65558;SDS011;52203;51.998;5.140;2023-07-08T07:07:42;6.43;;;3.00;;
65558;SDS011;52203;51.998;5.140;2023-07-08T07:10:07;7.05;;;3.58;;
65558;SDS011;52203;51.998;5.140;2023-07-08T07:12:33;6.65;;;3.20;;
65558;SDS011;52203;51.998;5.140;2023-07-08T07:14:59;6.43;;;3.03;;
65558;SDS011;52203;51.998;5.140;2023-07-08T07:17:25;5.45;;;3.33;;
65558;SDS011;52203;51.998;5.140;2023-07-08T07:19:52;6.95;;;3.30;;
65558;SDS011;52203;51.998;5.140;2023-07-08T07:22:18;5.35;;;3.10;;
65558;SDS011;52203;51.998;5.140;2023-07-08T07:24:43;4.30;;;2.90;;
65558;SDS011;52203;51.998;5.140;2023-07-08T07:27:09;6.68;;;3.42;;
65558;SDS011;52203;51.998;5.140;2023-07-08T07:29:40;5.72;;;3.35;;
65558;SDS011;52203;51.998;5.140;2023-07-08T07:32:13;4.97;;;3.20;;
65558;SDS011;52203;51.998;5.140;2023-07-08T07:34:40;4.47;;;3.15;;
65558;SDS011;52203;51.998;5.140;2023-07-08T07:37:06;5.97;;;3.10;;
65558;SDS011;52203;51.998;5.140;2023-07-08T07:39:35;6.15;;;3.67;;
65558;SDS011;52203;51.998;5.140;2023-07-08T07:42:01;6.05;;;3.45;;
65558;SDS011;52203;51.998;5.140;2023-07-08T07:44:26;4.82;;;3.05;;
65558;SDS011;52203;51.998;5.140;2023-07-08T07:46:52;7.50;;;3.33;;
65558;SDS011;52203;51.998;5.140;2023-07-08T07:49:19;6.57;;;3.28;;
65558;SDS011;52203;51.998;5.140;2023-07-08T07:51:45;5.72;;;3.30;;
65558;SDS011;52203;51.998;5.140;2023-07-08T07:54:10;5.20;;;3.40;;
65558;SDS011;52203;51.998;5.140;2023-07-08T07:56:36;4.80;;;3.40;;
65558;SDS011;52203;51.998;5.140;2023-07-08T07:59:02;6.90;;;4.15;;
65558;SDS011;52203;51.998;5.140;2023-07-08T08:01:28;5.63;;;3.20;;
65558;SDS011;52203;51.998;5.140;2023-07-08T08:03:54;7.47;;;3.42;;
65558;SDS011;52203;51.998;5.140;2023-07-08T08:06:19;4.63;;;3.38;;
65558;SDS011;52203;51.998;5.140;2023-07-08T08:08:45;6.63;;;3.70;;
65558;SDS011;52203;51.998;5.140;2023-07-08T08:11:11;6.35;;;3.42;;
65558;SDS011;52203;51.998;5.140;2023-07-08T08:13:36;5.55;;;3.42;;
65558;SDS011;52203;51.998;5.140;2023-07-08T08:16:02;5.97;;;3.60;;
65558;SDS011;52203;51.998;5.140;2023-07-08T08:18:28;6.93;;;4.07;;
65558;SDS011;52203;51.998;5.140;2023-07-08T08:20:54;8.07;;;3.83;;
65558;SDS011;52203;51.998;5.140;2023-07-08T08:23:20;6.43;;;3.53;;
65558;SDS011;52203;51.998;5.140;2023-07-08T08:25:45;7.00;;;3.92;;
65558;SDS011;52203;51.998;5.140;2023-07-08T08:28:11;5.25;;;3.40;;
65558;SDS011;52203;51.998;5.140;2023-07-08T08:30:36;5.90;;;3.88;;
65558;SDS011;52203;51.998;5.140;2023-07-08T08:33:02;7.15;;;4.03;;
65558;SDS011;52203;51.998;5.140;2023-07-08T08:35:27;7.15;;;3.60;;
65558;SDS011;52203;51.998;5.140;2023-07-08T08:37:53;6.32;;;3.83;;
65558;SDS011;52203;51.998;5.140;2023-07-08T08:40:19;6.60;;;3.30;;
65558;SDS011;52203;51.998;5.140;2023-07-08T08:43:06;6.38;;;3.88;;
65558;SDS011;52203;51.998;5.140;2023-07-08T08:45:36;6.05;;;3.45;;
65558;SDS011;52203;51.998;5.140;2023-07-08T08:48:10;6.63;;;3.95;;
65558;SDS011;52203;51.998;5.140;2023-07-08T08:50:47;7.65;;;3.75;;
65558;SDS011;52203;51.998;5.140;2023-07-08T08:53:29;5.97;;;4.00;;
65558;SDS011;52203;51.998;5.140;2023-07-08T08:56:08;6.55;;;3.97;;
65558;SDS011;52203;51.998;5.140;2023-07-08T08:58:52;7.35;;;3.90;;
65558;SDS011;52203;51.998;5.140;2023-07-08T09:01:24;8.00;;;3.97;;
65558;SDS011;52203;51.998;5.140;2023-07-08T09:03:51;7.22;;;4.55;;
65558;SDS011;52203;51.998;5.140;2023-07-08T09:06:29;6.43;;;3.83;;
65558;SDS011;52203;51.998;5.140;2023-07-08T09:09:02;7.10;;;4.20;;
65558;SDS011;52203;51.998;5.140;2023-07-08T09:11:47;6.90;;;4.10;;
65558;SDS011;52203;51.998;5.140;2023-07-08T09:14:26;7.93;;;4.28;;
65558;SDS011;52203;51.998;5.140;2023-07-08T09:19:41;8.63;;;4.53;;
65558;SDS011;52203;51.998;5.140;2023-07-08T09:22:25;8.10;;;4.72;;
65558;SDS011;52203;51.998;5.140;2023-07-08T09:28:02;6.18;;;4.35;;
65558;SDS011;52203;51.998;5.140;2023-07-08T09:30:28;8.10;;;4.72;;
65558;SDS011;52203;51.998;5.140;2023-07-08T09:32:55;8.63;;;4.53;;
65558;SDS011;52203;51.998;5.140;2023-07-08T09:35:22;10.52;;;4.80;;
65558;SDS011;52203;51.998;5.140;2023-07-08T09:37:50;8.80;;;4.35;;
65558;SDS011;52203;51.998;5.140;2023-07-08T09:42:51;8.93;;;4.60;;
65558;SDS011;52203;51.998;5.140;2023-07-08T09:45:20;7.30;;;4.90;;
65558;SDS011;52203;51.998;5.140;2023-07-08T09:47:49;7.50;;;5.03;;
65558;SDS011;52203;51.998;5.140;2023-07-08T09:52:47;9.55;;;4.55;;
65558;SDS011;52203;51.998;5.140;2023-07-08T09:55:13;8.00;;;5.00;;
65558;SDS011;52203;51.998;5.140;2023-07-08T09:57:39;9.35;;;5.05;;
65558;SDS011;52203;51.998;5.140;2023-07-08T10:00:09;6.75;;;4.68;;
65558;SDS011;52203;51.998;5.140;2023-07-08T10:02:39;8.15;;;4.97;;
65558;SDS011;52203;51.998;5.140;2023-07-08T10:05:29;8.30;;;4.47;;
65558;SDS011;52203;51.998;5.140;2023-07-08T10:08:10;6.90;;;4.78;;
65558;SDS011;52203;51.998;5.140;2023-07-08T10:10:42;7.43;;;4.65;;
65558;SDS011;52203;51.998;5.140;2023-07-08T10:15:43;10.40;;;5.45;;
65558;SDS011;52203;51.998;5.140;2023-07-08T10:18:15;9.68;;;4.80;;
65558;SDS011;52203;51.998;5.140;2023-07-08T10:20:56;8.45;;;5.03;;
65558;SDS011;52203;51.998;5.140;2023-07-08T10:23:47;7.40;;;4.88;;
65558;SDS011;52203;51.998;5.140;2023-07-08T10:26:27;8.00;;;5.43;;
65558;SDS011;52203;51.998;5.140;2023-07-08T10:32:23;9.52;;;5.70;;
65558;SDS011;52203;51.998;5.140;2023-07-08T10:37:42;8.75;;;5.93;;
65558;SDS011;52203;51.998;5.140;2023-07-08T10:43:19;9.52;;;6.50;;
65558;SDS011;52203;51.998;5.140;2023-07-08T10:56:55;9.13;;;5.25;;
65558;SDS011;52203;51.998;5.140;2023-07-08T11:04:54;9.70;;;5.40;;
65558;SDS011;52203;51.998;5.140;2023-07-08T11:09:54;9.35;;;5.78;;
65558;SDS011;52203;51.998;5.140;2023-07-08T11:12:32;10.57;;;5.70;;
65558;SDS011;52203;51.998;5.140;2023-07-08T11:17:52;8.13;;;5.05;;
65558;SDS011;52203;51.998;5.140;2023-07-08T11:20:31;9.30;;;5.38;;
65558;SDS011;52203;51.998;5.140;2023-07-08T11:23:04;10.32;;;5.00;;
65558;SDS011;52203;51.998;5.140;2023-07-08T11:26:22;9.05;;;5.28;;
65558;SDS011;52203;51.998;5.140;2023-07-08T11:28:47;8.38;;;5.03;;
65558;SDS011;52203;51.998;5.140;2023-07-08T11:31:16;9.23;;;5.50;;
65558;SDS011;52203;51.998;5.140;2023-07-08T11:33:46;10.70;;;5.47;;
65558;SDS011;52203;51.998;5.140;2023-07-08T11:36:13;9.52;;;5.50;;
65558;SDS011;52203;51.998;5.140;2023-07-08T11:38:53;9.00;;;5.25;;
65558;SDS011;52203;51.998;5.140;2023-07-08T11:41:20;10.45;;;5.63;;
65558;SDS011;52203;51.998;5.140;2023-07-08T11:43:52;9.85;;;5.32;;
65558;SDS011;52203;51.998;5.140;2023-07-08T11:46:25;8.23;;;5.15;;
65558;SDS011;52203;51.998;5.140;2023-07-08T11:48:54;7.40;;;4.90;;
65558;SDS011;52203;51.998;5.140;2023-07-08T11:51:32;8.52;;;5.63;;
65558;SDS011;52203;51.998;5.140;2023-07-08T11:54:06;8.15;;;5.47;;
65558;SDS011;52203;51.998;5.140;2023-07-08T11:56:48;10.25;;;5.70;;
65558;SDS011;52203;51.998;5.140;2023-07-08T11:59:20;8.48;;;5.38;;
65558;SDS011;52203;51.998;5.140;2023-07-08T12:07:01;8.50;;;5.40;;
65558;SDS011;52203;51.998;5.140;2023-07-08T12:09:47;8.57;;;5.63;;
65558;SDS011;52203;51.998;5.140;2023-07-08T12:12:30;8.65;;;5.90;;
65558;SDS011;52203;51.998;5.140;2023-07-08T12:14:58;10.05;;;6.07;;
65558;SDS011;52203;51.998;5.140;2023-07-08T12:17:30;9.50;;;5.50;;
65558;SDS011;52203;51.998;5.140;2023-07-08T12:19:56;11.77;;;5.47;;
65558;SDS011;52203;51.998;5.140;2023-07-08T12:22:28;8.00;;;5.32;;
65558;SDS011;52203;51.998;5.140;2023-07-08T12:24:53;10.20;;;5.88;;
65558;SDS011;52203;51.998;5.140;2023-07-08T12:27:21;9.57;;;5.90;;
65558;SDS011;52203;51.998;5.140;2023-07-08T12:29:46;11.52;;;5.72;;
65558;SDS011;52203;51.998;5.140;2023-07-08T12:32:12;9.57;;;5.85;;
65558;SDS011;52203;51.998;5.140;2023-07-08T12:34:38;8.70;;;6.07;;
65558;SDS011;52203;51.998;5.140;2023-07-08T12:37:04;8.95;;;5.75;;
65558;SDS011;52203;51.998;5.140;2023-07-08T12:39:34;9.75;;;6.35;;
65558;SDS011;52203;51.998;5.140;2023-07-08T12:42:00;12.50;;;6.10;;
65558;SDS011;52203;51.998;5.140;2023-07-08T12:44:26;10.45;;;6.07;;
65558;SDS011;52203;51.998;5.140;2023-07-08T12:46:54;12.00;;;6.38;;
65558;SDS011;52203;51.998;5.140;2023-07-08T12:49:20;8.85;;;5.57;;
65558;SDS011;52203;51.998;5.140;2023-07-08T12:51:51;13.80;;;6.22;;
65558;SDS011;52203;51.998;5.140;2023-07-08T12:54:17;11.00;;;6.40;;
65558;SDS011;52203;51.998;5.140;2023-07-08T12:56:43;9.57;;;5.80;;
65558;SDS011;52203;51.998;5.140;2023-07-08T12:59:12;9.38;;;5.95;;
65558;SDS011;52203;51.998;5.140;2023-07-08T13:01:43;10.02;;;6.07;;
65558;SDS011;52203;51.998;5.140;2023-07-08T13:04:11;9.80;;;6.25;;
65558;SDS011;52203;51.998;5.140;2023-07-08T13:06:38;10.88;;;5.90;;
65558;SDS011;52203;51.998;5.140;2023-07-08T13:09:07;13.73;;;6.30;;
65558;SDS011;52203;51.998;5.140;2023-07-08T13:11:44;9.95;;;5.68;;
65558;SDS011;52203;51.998;5.140;2023-07-08T13:14:11;10.40;;;6.00;;
65558;SDS011;52203;51.998;5.140;2023-07-08T13:16:37;9.52;;;6.13;;
65558;SDS011;52203;51.998;5.140;2023-07-08T13:19:03;10.35;;;5.82;;
65558;SDS011;52203;51.998;5.140;2023-07-08T13:21:29;9.75;;;5.78;;
65558;SDS011;52203;51.998;5.140;2023-07-08T13:23:57;9.65;;;5.65;;
65558;SDS011;52203;51.998;5.140;2023-07-08T13:26:23;9.77;;;5.80;;
65558;SDS011;52203;51.998;5.140;2023-07-08T13:29:03;11.38;;;6.25;;
65558;SDS011;52203;51.998;5.140;2023-07-08T13:31:33;9.73;;;5.85;;
65558;SDS011;52203;51.998;5.140;2023-07-08T13:34:06;12.75;;;5.85;;
65558;SDS011;52203;51.998;5.140;2023-07-08T13:36:36;9.85;;;6.00;;
65558;SDS011;52203;51.998;5.140;2023-07-08T13:39:13;10.15;;;5.70;;
65558;SDS011;52203;51.998;5.140;2023-07-08T13:41:44;11.68;;;5.80;;
65558;SDS011;52203;51.998;5.140;2023-07-08T13:44:10;11.20;;;6.05;;
65558;SDS011;52203;51.998;5.140;2023-07-08T13:46:46;9.02;;;5.32;;
65558;SDS011;52203;51.998;5.140;2023-07-08T13:49:29;9.68;;;5.50;;
65558;SDS011;52203;51.998;5.140;2023-07-08T13:52:13;11.40;;;5.90;;
65558;SDS011;52203;51.998;5.140;2023-07-08T13:54:47;8.30;;;5.25;;
65558;SDS011;52203;51.998;5.140;2023-07-08T13:57:19;13.02;;;5.85;;
65558;SDS011;52203;51.998;5.140;2023-07-08T13:59:47;9.43;;;5.70;;
65558;SDS011;52203;51.998;5.140;2023-07-08T14:04:47;12.88;;;5.35;;
65558;SDS011;52203;51.998;5.140;2023-07-08T14:07:24;9.13;;;5.50;;
65558;SDS011;52203;51.998;5.140;2023-07-08T14:09:51;10.13;;;5.20;;
65558;SDS011;52203;51.998;5.140;2023-07-08T14:12:17;9.75;;;5.50;;
65558;SDS011;52203;51.998;5.140;2023-07-08T14:14:43;12.82;;;5.90;;
65558;SDS011;52203;51.998;5.140;2023-07-08T14:17:12;8.93;;;5.78;;
65558;SDS011;52203;51.998;5.140;2023-07-08T14:19:43;8.52;;;5.72;;
65558;SDS011;52203;51.998;5.140;2023-07-08T14:22:18;9.32;;;5.45;;
65558;SDS011;52203;51.998;5.140;2023-07-08T14:24:47;10.32;;;6.30;;
65558;SDS011;52203;51.998;5.140;2023-07-08T14:27:12;9.55;;;5.38;;
65558;SDS011;52203;51.998;5.140;2023-07-08T14:29:42;9.00;;;5.70;;
65558;SDS011;52203;51.998;5.140;2023-07-08T14:34:47;11.30;;;5.53;;
65558;SDS011;52203;51.998;5.140;2023-07-08T14:39:42;9.43;;;5.50;;
65558;SDS011;52203;51.998;5.140;2023-07-08T14:42:10;9.30;;;5.43;;
65558;SDS011;52203;51.998;5.140;2023-07-08T14:44:37;10.00;;;6.90;;
65558;SDS011;52203;51.998;5.140;2023-07-08T14:47:08;10.73;;;5.75;;
65558;SDS011;52203;51.998;5.140;2023-07-08T14:52:02;12.50;;;5.47;;
65558;SDS011;52203;51.998;5.140;2023-07-08T14:54:28;7.63;;;5.20;;
65558;SDS011;52203;51.998;5.140;2023-07-08T14:56:54;14.10;;;6.03;;
65558;SDS011;52203;51.998;5.140;2023-07-08T14:59:22;8.38;;;5.18;;
65558;SDS011;52203;51.998;5.140;2023-07-08T15:01:49;9.25;;;5.25;;
65558;SDS011;52203;51.998;5.140;2023-07-08T15:04:17;9.70;;;5.75;;
65558;SDS011;52203;51.998;5.140;2023-07-08T15:06:43;10.98;;;5.97;;
65558;SDS011;52203;51.998;5.140;2023-07-08T15:09:10;11.00;;;5.60;;
65558;SDS011;52203;51.998;5.140;2023-07-08T15:11:36;9.32;;;5.63;;
65558;SDS011;52203;51.998;5.140;2023-07-08T15:14:03;10.60;;;5.60;;
65558;SDS011;52203;51.998;5.140;2023-07-08T15:16:34;12.02;;;5.80;;
65558;SDS011;52203;51.998;5.140;2023-07-08T15:19:00;9.77;;;5.68;;
65558;SDS011;52203;51.998;5.140;2023-07-08T15:21:25;8.93;;;5.75;;
65558;SDS011;52203;51.998;5.140;2023-07-08T15:23:51;8.45;;;5.03;;
65558;SDS011;52203;51.998;5.140;2023-07-08T15:26:16;10.50;;;5.78;;
65558;SDS011;52203;51.998;5.140;2023-07-08T15:28:45;8.65;;;5.47;;
65558;SDS011;52203;51.998;5.140;2023-07-08T15:31:14;9.60;;;5.65;;
65558;SDS011;52203;51.998;5.140;2023-07-08T15:33:42;12.27;;;5.50;;
65558;SDS011;52203;51.998;5.140;2023-07-08T15:36:09;8.38;;;5.40;;
65558;SDS011;52203;51.998;5.140;2023-07-08T15:38:36;12.85;;;6.13;;
65558;SDS011;52203;51.998;5.140;2023-07-08T15:41:01;9.77;;;5.45;;
65558;SDS011;52203;51.998;5.140;2023-07-08T15:43:29;8.57;;;5.07;;
65558;SDS011;52203;51.998;5.140;2023-07-08T15:45:55;9.48;;;5.15;;
65558;SDS011;52203;51.998;5.140;2023-07-08T15:48:21;9.98;;;5.43;;
65558;SDS011;52203;51.998;5.140;2023-07-08T15:50:46;9.40;;;5.43;;
65558;SDS011;52203;51.998;5.140;2023-07-08T15:53:14;12.32;;;5.18;;
65558;SDS011;52203;51.998;5.140;2023-07-08T15:55:41;7.43;;;4.90;;
65558;SDS011;52203;51.998;5.140;2023-07-08T15:58:10;14.27;;;5.60;;